tititudorancea.com
Station Historical Data
Daily Summary for October 24, 2018 Units:  Metric    English   Both
« Previous Day
Next Day »
Daily Weekly Monthly Yearly Custom
  High: Low: Average:
Temperature: -17.8 °C 1.8 °C 9.2 °C
Dew Point: -17.8 °C 0.8 °C 3.2 °C
Humidity: Humidity % 43 % 69 %
Wind Speed: 0 km/h 0 km/h 12.1 km/h
Wind Gust: 0 km/h - -
Wind:- - South
Pressure: 0 hPa 1019.5 hPa -
Precipitation: 0 mm    
Historical Graphs
 
 
Ararat weather Find more about Weather in Ararat, AU


 



 


Tabular Data for October 24, 2018
Time Temperature Dew Point Pressure Wind Wind Speed Wind Gust Humidity Rainfall Rate (Hourly)
-17.8 °C -17.8 °C 0 hPa Calm     Humidity % 0 mm
00:04 6.6 °C 3.9 °C 1020.9 hPa SSW 11.3 km/h 5.1 km/h 83 % 0 mm
00:09 6.6 °C 3.9 °C 1020.9 hPa North 9.3 km/h 5.5 km/h 83 % 0 mm
00:14 6.5 °C 3.8 °C 1020.9 hPa North 5.6 km/h 2.7 km/h 83 % 0 mm
00:19 6.4 °C 3.7 °C 1020.9 hPa SSW 5.6 km/h 3.2 km/h 83 % 0 mm
00:24 6.2 °C 3.6 °C 1020.9 hPa SSW 3.7 km/h 2.7 km/h 83 % 0 mm
00:29 5.8 °C 2.9 °C 1020.9 hPa SSW 5.6 km/h 2.6 km/h 82 % 0 mm
00:34 5.4 °C 2.8 °C 1020.9 hPa SSW 4.8 km/h 2.6 km/h 83 % 0 mm
00:39 5.2 °C 2.7 °C 1020.9 hPa SSW 3.7 km/h 2.1 km/h 84 % 0 mm
00:44 5 °C 2.7 °C 1020.9 hPa South 1.9 km/h 0.2 km/h 85 % 0 mm
00:49 4.8 °C 2.5 °C 1021.2 hPa SSW 3.7 km/h 2.4 km/h 85 % 0 mm
00:54 4.7 °C 2.4 °C 1021.2 hPa Calm     85 % 0 mm
00:59 4.6 °C 2.4 °C 1021.2 hPa SSW 1.9 km/h 0.2 km/h 86 % 0 mm
01:04 4.5 °C 2.3 °C 1020.9 hPa SSW 1.9 km/h 0.6 km/h 86 % 0 mm
01:09 4.4 °C 2.4 °C 1020.9 hPa SSW 3.7 km/h 1.4 km/h 87 % 0 mm
01:14 4.3 °C 2.3 °C 1020.9 hPa North 3.7 km/h 1.9 km/h 87 % 0 mm
01:19 4.3 °C 2.3 °C 1020.9 hPa SSW 1.9 km/h 0.3 km/h 87 % 0 mm
01:24 4.2 °C 2.2 °C 1020.9 hPa SSW 3.7 km/h 1.6 km/h 87 % 0 mm
01:29 4.1 °C 2.3 °C 1020.9 hPa South 5.6 km/h 0.6 km/h 88 % 0 mm
01:34 4.1 °C 2.2 °C 1020.9 hPa SSW 5.6 km/h 2.4 km/h 88 % 0 mm
01:39 4 °C 2.2 °C 1020.5 hPa SSW 3.7 km/h 2.3 km/h 88 % 0 mm
01:44 3.9 °C 2.3 °C 1020.5 hPa South 6.4 km/h 5.8 km/h 89 % 0 mm
01:49 3.9 °C 2.3 °C 1020.5 hPa SSW 5.6 km/h 0.6 km/h 89 % 0 mm
01:54 3.9 °C 2.3 °C 1020.5 hPa SSW 4.8 km/h 2.9 km/h 89 % 0 mm
01:59 3.8 °C 2.2 °C 1020.5 hPa SSW 5.6 km/h 4.3 km/h 89 % 0 mm
02:04 3.9 °C 2.4 °C 1020.5 hPa SSW 5.6 km/h 3.5 km/h 90 % 0 mm
02:09 3.9 °C 2.4 °C 1020.5 hPa SSW 4.8 km/h 3.2 km/h 90 % 0 mm
02:14 3.9 °C 2.4 °C 1020.5 hPa SSW 5.6 km/h 3.5 km/h 90 % 0 mm
02:19 3.9 °C 2.4 °C 1020.5 hPa SSW 4.8 km/h 3.2 km/h 90 % 0 mm
02:24 3.8 °C 2.3 °C 1020.5 hPa SSW 5.6 km/h 2.3 km/h 90 % 0 mm
02:29 3.8 °C 2.3 °C 1020.5 hPa North 3.7 km/h 2.6 km/h 90 % 0 mm
02:34 3.7 °C 2.2 °C 1020.5 hPa SSW 3.7 km/h 0.2 km/h 90 % 0 mm
02:39 3.6 °C 2.1 °C 1020.2 hPa SSW 1.9 km/h 0.2 km/h 90 % 0 mm
02:44 3.4 °C 1.9 °C 1020.5 hPa Calm     90 % 0 mm
02:49 3.4 °C 1.9 °C 1020.5 hPa SSW 3.7 km/h 1.6 km/h 90 % 0 mm
02:54 3.3 °C 1.8 °C 1020.5 hPa North 3.7 km/h 1.1 km/h 90 % 0 mm
02:59 3.2 °C 1.7 °C 1020.5 hPa Calm     90 % 0 mm
03:04 3.2 °C 1.7 °C 1020.5 hPa SSW 3.7 km/h 0.6 km/h 90 % 0 mm
03:09 3 °C 1.5 °C 1020.2 hPa SSW 5.6 km/h 5 km/h 90 % 0 mm
03:14 2.9 °C 1.6 °C 1020.5 hPa SSW 5.6 km/h 3.4 km/h 91 % 0 mm
03:19 2.8 °C 1.5 °C 1020.5 hPa SSW 1.9 km/h   91 % 0 mm
03:24 2.7 °C 1.4 °C 1020.5 hPa SSW 5.6 km/h 3.2 km/h 91 % 0 mm
03:29 2.7 °C 1.3 °C 1020.5 hPa Calm     91 % 0 mm
03:34 2.5 °C 1.2 °C 1020.5 hPa Calm     91 % 0 mm
03:39 2.4 °C 1.1 °C 1020.5 hPa Calm     91 % 0 mm
03:44 2.4 °C 1.1 °C 1020.5 hPa Calm     91 % 0 mm
03:49 2.4 °C 1.1 °C 1020.5 hPa Calm     91 % 0 mm
03:54 2.4 °C 1.2 °C 1020.5 hPa Calm     92 % 0 mm
03:59 2.3 °C 1.1 °C 1020.5 hPa Calm     92 % 0 mm
04:04 2.3 °C 1.1 °C 1020.9 hPa SSW 3.2 km/h 2.1 km/h 92 % 0 mm
04:09 2.3 °C 1.1 °C 1020.5 hPa North 5.6 km/h 2.9 km/h 92 % 0 mm
04:14 2.3 °C 1.2 °C 1020.5 hPa SSW 3.7 km/h 1.1 km/h 92 % 0 mm
04:19 2.4 °C 1.2 °C 1020.9 hPa SSW 3.7 km/h 0.5 km/h 92 % 0 mm
04:24 2.4 °C 1.3 °C 1020.9 hPa SSW 3.7 km/h 1.9 km/h 92 % 0 mm
04:29 2.4 °C 1.3 °C 1020.9 hPa SSW 1.9 km/h 1 km/h 92 % 0 mm
04:34 2.4 °C 1.2 °C 1020.9 hPa North 1.9 km/h 0.2 km/h 92 % 0 mm
04:39 2.3 °C 1.2 °C 1020.9 hPa SSW 3.7 km/h 1.8 km/h 92 % 0 mm
04:44 2.3 °C 1.1 °C 1020.9 hPa South 5.6 km/h 1.6 km/h 92 % 0 mm
04:49 2.3 °C 1.1 °C 1020.9 hPa SSW 3.7 km/h 1 km/h 92 % 0 mm
04:54 2.5 °C 1.5 °C 1020.9 hPa North 3.7 km/h 2.3 km/h 93 % 0 mm
04:59 2.6 °C 1.6 °C 1020.9 hPa SSW 5.6 km/h 2.9 km/h 93 % 0 mm
05:04 2.6 °C 1.6 °C 1020.9 hPa North 3.7 km/h 2.3 km/h 93 % 0 mm
05:09 2.6 °C 1.6 °C 1020.9 hPa SSW 3.7 km/h 2.4 km/h 93 % 0 mm
05:14 2.6 °C 1.6 °C 1020.9 hPa SSW 6.4 km/h 3.7 km/h 93 % 0 mm
05:19 2.6 °C 1.6 °C 1020.9 hPa South 3.7 km/h 1.3 km/h 93 % 0 mm
05:24 2.5 °C 1.3 °C 1021.2 hPa Calm     92 % 0 mm
05:29 2.4 °C 1.2 °C 1021.2 hPa Calm     92 % 0 mm
05:34 2.3 °C 1.3 °C 1021.2 hPa Calm     93 % 0 mm
05:39 2.3 °C 1.1 °C 1021.2 hPa North 1.9 km/h   92 % 0 mm
05:44 2.2 °C 1.2 °C 1021.2 hPa North 3.7 km/h 1.8 km/h 93 % 0 mm
05:49 2.2 °C 1.2 °C 1021.2 hPa SSW 5.6 km/h 2.7 km/h 93 % 0 mm
05:54 2.1 °C 0.9 °C 1021.2 hPa SSW 3.7 km/h 2.4 km/h 92 % 0 mm
05:59 1.9 °C 0.8 °C 1021.6 hPa SSW 3.7 km/h 2.4 km/h 92 % 0 mm
06:04 1.9 °C 0.9 °C 1021.6 hPa SSW 5.6 km/h 2.9 km/h 93 % 0 mm
06:09 1.8 °C 0.8 °C 1021.6 hPa SSW 6.4 km/h 5.1 km/h 93 % 0 mm
06:14 1.8 °C 0.8 °C 1021.6 hPa SSW 5.6 km/h 4.2 km/h 93 % 0 mm
06:19 2.1 °C 1.1 °C 1021.6 hPa SSW 6.4 km/h 4 km/h 93 % 0 mm
06:24 2.2 °C 1.3 °C 1021.6 hPa SSW 7.4 km/h 4.5 km/h 94 % 0 mm
06:29 2.3 °C 1.4 °C 1021.6 hPa North 5.6 km/h 2.1 km/h 94 % 0 mm
06:34 2.4 °C 1.4 °C 1021.9 hPa North 3.7 km/h   93 % 0 mm
06:39 2.4 °C 1.4 °C 1021.9 hPa SSW 5.6 km/h 3.2 km/h 93 % 0 mm
06:44 2.4 °C 1.4 °C 1021.9 hPa SSW 5.6 km/h 1.6 km/h 93 % 0 mm
06:49 2.5 °C 1.5 °C 1021.9 hPa SSW 3.7 km/h 1.1 km/h 93 % 0 mm
06:54 2.6 °C 1.7 °C 1022.2 hPa North 3.7 km/h 2.7 km/h 94 % 0 mm
06:59 2.6 °C 1.6 °C 1022.2 hPa North 3.7 km/h 2.4 km/h 93 % 0 mm
07:04 2.6 °C 1.6 °C 1022.2 hPa North 5.6 km/h 4.3 km/h 93 % 0 mm
07:09 2.6 °C 1.6 °C 1022.2 hPa North 5.6 km/h 3.4 km/h 93 % 0 mm
07:14 2.6 °C 1.6 °C 1021.9 hPa SSW 7.4 km/h 4.8 km/h 93 % 0 mm
07:19 2.7 °C 1.8 °C 1021.9 hPa SSW 13 km/h 5.8 km/h 94 % 0 mm
07:24 2.8 °C 1.9 °C 1021.9 hPa North 14.5 km/h 6.3 km/h 94 % 0 mm
07:29 3.2 °C 2.3 °C 1021.9 hPa South 13 km/h 7.9 km/h 94 % 0 mm
07:34 3.4 °C 2.6 °C 1021.9 hPa North 14.8 km/h 6 km/h 94 % 0 mm
07:39 3.7 °C 2.8 °C 1021.9 hPa South 8 km/h 4.8 km/h 94 % 0 mm
07:44 3.9 °C 3 °C 1022.2 hPa South 11.1 km/h 5.5 km/h 94 % 0 mm
07:49 4.1 °C 3.2 °C 1022.2 hPa South 8 km/h 6.4 km/h 94 % 0 mm
07:54 4.3 °C 3.4 °C 1022.2 hPa South 9.3 km/h 6.6 km/h 94 % 0 mm
07:59 4.6 °C 3.7 °C 1022.6 hPa South 5.6 km/h 1.8 km/h 94 % 0 mm
08:04 4.9 °C 4.1 °C 1022.6 hPa South 9.3 km/h 5.1 km/h 94 % 0 mm
08:09 5.3 °C 4.4 °C 1022.6 hPa South 7.4 km/h 5 km/h 94 % 0 mm
08:14 5.6 °C 4.7 °C 1022.6 hPa South 14.8 km/h 6.9 km/h 94 % 0 mm
08:19 5.9 °C 5 °C 1022.6 hPa South 7.4 km/h 4 km/h 94 % 0 mm
08:24 6.3 °C 5.2 °C 1022.6 hPa South 7.4 km/h 5 km/h 93 % 0 mm
08:29 6.6 °C 5.4 °C 1022.6 hPa South 9.7 km/h 7.9 km/h 92 % 0 mm
08:34 6.9 °C 5.5 °C 1022.6 hPa South 9.3 km/h 8 km/h 91 % 0 mm
08:39 7.1 °C 5.6 °C 1022.6 hPa South 14.8 km/h 5.6 km/h 90 % 0 mm
08:44 7.4 °C 5.7 °C 1022.9 hPa South 9.3 km/h 9.3 km/h 89 % 0 mm
08:49 7.7 °C 5.7 °C 1022.9 hPa South 14.8 km/h 8.5 km/h 87 % 0 mm
08:54 8.1 °C 6 °C 1022.9 hPa South 11.1 km/h 7.9 km/h 87 % 0 mm
08:59 8.5 °C 5.8 °C 1022.9 hPa SSE 22.5 km/h 13.8 km/h 83 % 0 mm
09:04 8.9 °C 5.8 °C 1022.9 hPa SSE 19.3 km/h 12.2 km/h 81 % 0 mm
09:09 9.3 °C 5.6 °C 1022.9 hPa South 16.1 km/h 11.7 km/h 78 % 0 mm
09:14 9.6 °C 5.6 °C 1023.2 hPa SSE 18.5 km/h 12.4 km/h 76 % 0 mm
09:19 9.8 °C 5.6 °C 1023.2 hPa SSE 16.7 km/h 11.7 km/h 75 % 0 mm
09:24 10.1 °C 5.4 °C 1023.6 hPa South 22.2 km/h 15.8 km/h 73 % 0 mm
09:29 10.2 °C 5.4 °C 1023.6 hPa SSE 18.5 km/h 13.2 km/h 72 % 0 mm
09:34 10.6 °C 5.8 °C 1023.6 hPa SSE 22.2 km/h 13.7 km/h 72 % 0 mm
09:39 10.3 °C 4.8 °C 1023.6 hPa South 24.1 km/h 15.4 km/h 69 % 0 mm
09:44 10.1 °C 4.9 °C 1023.6 hPa SSE 22.2 km/h 10.3 km/h 70 % 0 mm
09:49 9.9 °C 4.7 °C 1023.6 hPa SE 17.7 km/h 12.1 km/h 70 % 0 mm
09:54 10 °C 4.8 °C 1023.6 hPa South 16.7 km/h 10.3 km/h 70 % 0 mm
09:59 10.6 °C 5.5 °C 1023.6 hPa SSE 18.5 km/h 15.3 km/h 71 % 0 mm
10:04 11.2 °C 5.5 °C 1023.6 hPa SSE 22.2 km/h 16.6 km/h 68 % 0 mm
10:09 11.4 °C 5.1 °C 1023.6 hPa SSE 24.1 km/h 13.5 km/h 65 % 0 mm
10:14 11.6 °C 4.6 °C 1023.6 hPa ESE 24.1 km/h 14.5 km/h 62 % 0 mm
10:19 12.1 °C 4.8 °C 1023.6 hPa SSE 22.2 km/h 16.1 km/h 61 % 0 mm
10:24 12.4 °C 4.3 °C 1023.6 hPa SSE 16.7 km/h 10.3 km/h 58 % 0 mm
10:29 12.7 °C 3.8 °C 1023.9 hPa SE 19.3 km/h 16.3 km/h 55 % 0 mm
10:34 12.3 °C 3.8 °C 1023.6 hPa SSE 18.5 km/h 9.5 km/h 56 % 0 mm
10:39 11.7 °C 3.9 °C 1023.6 hPa SSE 18.5 km/h 9.5 km/h 59 % 0 mm
10:44 11.5 °C 4 °C 1023.6 hPa SE 18.5 km/h 14.3 km/h 60 % 0 mm
10:49 11.5 °C 3.8 °C 1023.6 hPa SE 16.7 km/h 10.5 km/h 59 % 0 mm
10:54 11.7 °C 3.7 °C 1023.6 hPa South 18.5 km/h 12.4 km/h 58 % 0 mm
10:59 11.6 °C 3.8 °C 1023.6 hPa South 18.5 km/h 6.8 km/h 59 % 0 mm
11:04 12.2 °C 4.2 °C 1023.6 hPa SSE 20.9 km/h 15.8 km/h 58 % 0 mm
11:09 12.1 °C 3.8 °C 1023.6 hPa SSE 16.7 km/h 13.7 km/h 57 % 0 mm
11:14 11.9 °C 3.7 °C 1023.6 hPa SE 22.2 km/h 15.4 km/h 57 % 0 mm
11:19 12.3 °C 3.7 °C 1023.6 hPa East 20.4 km/h 12.9 km/h 56 % 0 mm
11:24 12.8 °C 3.9 °C 1023.6 hPa SE 20.4 km/h 16.1 km/h 55 % 0 mm
11:29 13 °C 4.2 °C 1023.6 hPa SE 24.1 km/h 14 km/h 55 % 0 mm
11:34 12.9 °C 3.8 °C 1023.2 hPa SE 18.5 km/h 12.4 km/h 54 % 0 mm
11:39 12.7 °C 4.2 °C 1023.2 hPa SE 18.5 km/h 13 km/h 56 % 0 mm
11:44 12.8 °C 4 °C 1023.2 hPa SSE 18.5 km/h 15.3 km/h 55 % 0 mm
11:49 12.8 °C 3.2 °C 1022.9 hPa SE 27.8 km/h 20.8 km/h 52 % 0 mm
11:54 13.1 °C 4.2 °C 1022.9 hPa SE 18.5 km/h 11.6 km/h 55 % 0 mm
11:59 13.4 °C 4.3 °C 1022.9 hPa SE 20.4 km/h 15.1 km/h 54 % 0 mm
12:04 13.4 °C 3.7 °C 1022.9 hPa South 18.5 km/h 13.4 km/h 52 % 0 mm
12:09 13.3 °C 4.2 °C 1022.9 hPa SSE 18.5 km/h 8.5 km/h 54 % 0 mm
12:14 13.4 °C 4.1 °C 1022.9 hPa SSE 25.9 km/h 17.1 km/h 53 % 0 mm
12:19 13 °C 3.9 °C 1022.9 hPa SSE 27.8 km/h 16.9 km/h 54 % 0 mm
12:24 13.3 °C 4.4 °C 1022.9 hPa SE 22.5 km/h 15.3 km/h 55 % 0 mm
12:29 13.6 °C 4.7 °C 1022.6 hPa SE 19.3 km/h 15.9 km/h 55 % 0 mm
12:34 13.7 °C 4.8 °C 1022.6 hPa SSE 13 km/h 6.4 km/h 55 % 0 mm
12:39 13.8 °C 4.3 °C 1022.6 hPa South 25.9 km/h 13 km/h 53 % 0 mm
12:44 14.1 °C 4.3 °C 1022.6 hPa SSE 20.9 km/h 13.7 km/h 52 % 0 mm
12:49 13.9 °C 3.9 °C 1022.6 hPa South 25.7 km/h 10.9 km/h 51 % 0 mm
12:54 14.2 °C 4.7 °C 1022.6 hPa SE 20.9 km/h 15.6 km/h 53 % 0 mm
12:59 14.3 °C 3.7 °C 1022.6 hPa South 18.5 km/h 9.8 km/h 49 % 0 mm
13:04 14.2 °C 3.9 °C 1022.2 hPa SSE 11.3 km/h 8.2 km/h 50 % 0 mm
13:09 14.2 °C 3.6 °C 1022.6 hPa SE 25.9 km/h 16.3 km/h 49 % 0 mm
13:14 14.1 °C 4.3 °C 1022.6 hPa SSE 25.9 km/h 10.5 km/h 52 % 0 mm
13:19 14.6 °C 4 °C 1022.6 hPa SSE 20.9 km/h 16.4 km/h 49 % 0 mm
13:24 14.4 °C 4.2 °C 1022.2 hPa South 16.7 km/h 6.9 km/h 50 % 0 mm
13:29 14.9 °C 4.6 °C 1022.2 hPa SSE 14.8 km/h 13.4 km/h 50 % 0 mm
13:34 14.8 °C 4.2 °C 1022.2 hPa South 18.5 km/h 17.2 km/h 49 % 0 mm
13:39 14.6 °C 3.7 °C 1022.2 hPa South 24.1 km/h 23 km/h 48 % 0 mm
13:44 14.7 °C 4.4 °C 1022.2 hPa South 29.6 km/h 16.3 km/h 50 % 0 mm
13:49 15.1 °C 4.7 °C 1022.2 hPa SSW 22.2 km/h 12.7 km/h 50 % 0 mm
13:54 15.5 °C 4.5 °C 1022.2 hPa SE 20.4 km/h 13.7 km/h 48 % 0 mm
13:59 15.1 °C 4.1 °C 1022.2 hPa South 22.2 km/h 14.5 km/h 48 % 0 mm
14:04 15.1 °C 4.1 °C 1022.2 hPa SE 18.5 km/h 14.8 km/h 48 % 0 mm
14:09 15.2 °C 3.9 °C 1021.9 hPa SSE 18.5 km/h 10.3 km/h 47 % 0 mm
14:14 15.1 °C 3.8 °C 1021.9 hPa SE 18.5 km/h 17.7 km/h 47 % 0 mm
14:19 15.2 °C 3.9 °C 1021.9 hPa SE 24.1 km/h 15.8 km/h 47 % 0 mm
14:24 15.2 °C 3.9 °C 1021.9 hPa SSE 20.4 km/h 13 km/h 47 % 0 mm
14:29 15.1 °C 3.8 °C 1021.6 hPa SSE 27.8 km/h 15.1 km/h 47 % 0 mm
14:34 15.2 °C 3.9 °C 1021.6 hPa South 18.5 km/h 13.2 km/h 47 % 0 mm
14:39 15 °C 3.8 °C 1021.6 hPa SSE 16.7 km/h 7.9 km/h 47 % 0 mm
14:44 15.2 °C 3.9 °C 1021.6 hPa SSE 20.4 km/h 13.4 km/h 47 % 0 mm
14:49 15.2 °C 4.3 °C 1021.6 hPa SE 20.4 km/h 11.7 km/h 48 % 0 mm
14:54 15.3 °C 4 °C 1021.6 hPa SSE 18.5 km/h 12.4 km/h 47 % 0 mm
14:59 15.1 °C 3.9 °C 1021.6 hPa South 16.7 km/h 14 km/h 47 % 0 mm
15:04 15.1 °C 3.8 °C 1021.2 hPa SE 20.9 km/h 13.7 km/h 47 % 0 mm
15:09 15.3 °C 3.7 °C 1021.2 hPa SE 17.7 km/h 14.6 km/h 46 % 0 mm
15:14 15.6 °C 3.9 °C 1021.2 hPa SE 20.4 km/h 15.3 km/h 46 % 0 mm
15:19 15.4 °C 3.8 °C 1021.2 hPa SSE 16.7 km/h 11.1 km/h 46 % 0 mm
15:24 15.4 °C 3.6 °C 1021.2 hPa SSE 25.9 km/h 18.2 km/h 45 % 0 mm
15:29 15.6 °C 3.7 °C 1021.2 hPa SE 14.8 km/h 8.7 km/h 45 % 0 mm
15:34 15.6 °C 4 °C 1020.9 hPa SSW 18.5 km/h 9.3 km/h 46 % 0 mm
15:39 15.9 °C 3.9 °C 1020.9 hPa SSE 24.1 km/h 13.4 km/h 45 % 0 mm
15:44 15.9 °C 4 °C 1020.9 hPa SSE 16.7 km/h 8 km/h 45 % 0 mm
15:49 15.9 °C 4.3 °C 1020.9 hPa SSE 18.5 km/h 8.5 km/h 46 % 0 mm
15:54 15.7 °C 4.1 °C 1020.9 hPa ESE 13 km/h 6.6 km/h 46 % 0 mm
15:59 15.7 °C 4.4 °C 1020.5 hPa SE 18.5 km/h 14.6 km/h 47 % 0 mm
16:04 15.9 °C 3.9 °C 1020.5 hPa SE 18.5 km/h 10.1 km/h 45 % 0 mm
16:09 16.1 °C 4.2 °C 1020.5 hPa SE 18.5 km/h 16.1 km/h 45 % 0 mm
16:14 16.1 °C 3.8 °C 1020.5 hPa SE 20.4 km/h 12.1 km/h 44 % 0 mm
16:19 16.2 °C 4.2 °C 1020.5 hPa SE 13 km/h 9.8 km/h 45 % 0 mm
16:24 16.1 °C 3.8 °C 1020.5 hPa ESE 19.3 km/h 16.7 km/h 44 % 0 mm
16:29 16.2 °C 3.9 °C 1020.5 hPa SSE 18.5 km/h 18.2 km/h 44 % 0 mm
16:34 16.4 °C 4.7 °C 1020.5 hPa SE 16.7 km/h 12.7 km/h 46 % 0 mm
16:39 16.5 °C 4.8 °C 1020.2 hPa SSE 16.7 km/h 12.2 km/h 46 % 0 mm
16:44 16.6 °C 3.9 °C 1020.2 hPa SSE 24.1 km/h 13.4 km/h 43 % 0 mm
16:49 16.3 °C 4.4 °C 1020.2 hPa SSE 14.5 km/h 12.1 km/h 45 % 0 mm
16:54 16.4 °C 4.4 °C 1020.2 hPa SSE 24.1 km/h 14 km/h 45 % 0 mm
16:59 16.1 °C 4.1 °C 1020.2 hPa South 16.7 km/h 11.6 km/h 45 % 0 mm
17:04 16 °C 4.1 °C 1020.2 hPa SE 18.5 km/h 15.6 km/h 45 % 0 mm
17:09 16.1 °C 5.1 °C 1020.2 hPa SE 18.5 km/h 10.3 km/h 48 % 0 mm
17:14 16.3 °C 4.6 °C 1019.9 hPa SSE 18.5 km/h 12.7 km/h 46 % 0 mm
17:19 16.3 °C 4.6 °C 1019.9 hPa SE 18.5 km/h 8.9 km/h 46 % 0 mm
17:24 16.1 °C 4.5 °C 1019.9 hPa South 18.5 km/h 13.5 km/h 46 % 0 mm
17:29 15.9 °C 4.9 °C 1019.9 hPa South 16.1 km/h 15.4 km/h 48 % 0 mm
17:34 15.9 °C 4.9 °C 1019.9 hPa SE 19.3 km/h 11.4 km/h 48 % 0 mm
17:39 15.9 °C 4.3 °C 1019.9 hPa ESE 22.2 km/h 13 km/h 46 % 0 mm
17:44 15.9 °C 4.3 °C 1019.9 hPa ESE 18.5 km/h 14 km/h 46 % 0 mm
17:49 16.1 °C 4.4 °C 1019.9 hPa SE 22.2 km/h 12.4 km/h 46 % 0 mm
17:54 15.8 °C 4.2 °C 1019.9 hPa SE 27.8 km/h 16.3 km/h 46 % 0 mm
17:59 15.6 °C 3.9 °C 1019.9 hPa SE 18.5 km/h 17.4 km/h 46 % 0 mm
18:04 15.4 °C 4.1 °C 1019.9 hPa SE 18.5 km/h 9.2 km/h 47 % 0 mm
18:09 15.3 °C 4 °C 1019.9 hPa SE 18.5 km/h 14.8 km/h 47 % 0 mm
18:14 15.2 °C 3.9 °C 1019.5 hPa SE 22.2 km/h 6.3 km/h 47 % 0 mm
18:19 15.1 °C 4.2 °C 1019.5 hPa SE 20.4 km/h 9.7 km/h 48 % 0 mm
18:24 15.2 °C 3.6 °C 1019.5 hPa SE 25.9 km/h 18.8 km/h 46 % 0 mm
18:29 15.1 °C 3.6 °C 1019.5 hPa SE 11.1 km/h 8 km/h 46 % 0 mm
18:34 15.2 °C 3.3 °C 1019.5 hPa SE 22.2 km/h 14.3 km/h 45 % 0 mm
18:39 15.3 °C 3.7 °C 1019.5 hPa SE 14.8 km/h 10.9 km/h 46 % 0 mm
18:44 15.3 °C 3.7 °C 1019.5 hPa SE 18.5 km/h 8.5 km/h 46 % 0 mm
18:49 15.2 °C 3.6 °C 1019.5 hPa SE 22.2 km/h 12.7 km/h 46 % 0 mm
18:54 14.9 °C 3.7 °C 1019.9 hPa SE 14.8 km/h 10.8 km/h 47 % 0 mm
18:59 14.8 °C 3.3 °C 1019.9 hPa SE 13 km/h 12.6 km/h 46 % 0 mm
19:04 14.7 °C 3.5 °C 1019.9 hPa SE 14.5 km/h 11.7 km/h 47 % 0 mm
19:09 14.7 °C 3.8 °C 1019.9 hPa SE 12.9 km/h 10.1 km/h 48 % 0 mm
19:14 14.6 °C 3.7 °C 1019.9 hPa SE 14.8 km/h 5.6 km/h 48 % 0 mm
19:19 14.4 °C 3.8 °C 1019.9 hPa SE 14.8 km/h 6.9 km/h 49 % 0 mm
19:24 14.3 °C 4 °C 1019.9 hPa SE 11.1 km/h 6.6 km/h 50 % 0 mm
19:29 14.1 °C 4.1 °C 1019.9 hPa SE 14.8 km/h 8.4 km/h 51 % 0 mm
19:34 13.8 °C 3.8 °C 1019.9 hPa SE 11.1 km/h 10.9 km/h 51 % 0 mm
19:39 13.5 °C 3.8 °C 1019.9 hPa SSE 12.9 km/h 6.8 km/h 52 % 0 mm
19:44 13.2 °C 3.8 °C 1019.9 hPa SE 7.4 km/h 5.3 km/h 53 % 0 mm
19:49 12.9 °C 3.8 °C 1020.2 hPa SSE 11.1 km/h 6.9 km/h 54 % 0 mm
19:54 12.6 °C 3.8 °C 1020.2 hPa SSE 7.4 km/h 5.1 km/h 55 % 0 mm
19:59 12.4 °C 3.8 °C 1020.2 hPa SE 11.1 km/h 5.1 km/h 56 % 0 mm
20:04 12.2 °C 3.9 °C 1019.9 hPa SSE 11.1 km/h 6.3 km/h 57 % 0 mm
20:09 11.9 °C 3.9 °C 1019.9 hPa SE 9.3 km/h 6.3 km/h 58 % 0 mm
20:14 11.6 °C 3.9 °C 1020.2 hPa SE 5.6 km/h 6.4 km/h 59 % 0 mm
20:19 11.4 °C 3.7 °C 1020.2 hPa SSE 8 km/h 4 km/h 59 % 0 mm
20:24 11.3 °C 3.8 °C 1020.2 hPa SSE 7.4 km/h 4.8 km/h 60 % 0 mm
20:29 11.1 °C 3.6 °C 1020.5 hPa SE 8 km/h 4.3 km/h 60 % 0 mm
20:34 10.9 °C 3.7 °C 1020.5 hPa SE 5.6 km/h 2.7 km/h 61 % 0 mm
20:39 10.8 °C 3.8 °C 1020.5 hPa SSE 3.7 km/h 1 km/h 62 % 0 mm
20:44 10.6 °C 3.6 °C 1020.5 hPa SE 5.6 km/h 2.4 km/h 62 % 0 mm
20:49 10.5 °C 3.7 °C 1020.9 hPa SE 3.7 km/h 4.5 km/h 63 % 0 mm
20:54 10.3 °C 3.6 °C 1020.5 hPa SSE 6.4 km/h 2.1 km/h 63 % 0 mm
20:59 10.2 °C 3.7 °C 1020.5 hPa SE 6.4 km/h 2.6 km/h 64 % 0 mm
21:04 10 °C 3.7 °C 1020.5 hPa SSE 7.4 km/h 7.1 km/h 65 % 0 mm
21:09 9.8 °C 3.8 °C 1020.5 hPa SE 7.4 km/h 6.4 km/h 66 % 0 mm
21:14 9.7 °C 3.7 °C 1020.5 hPa SE 13 km/h 6.9 km/h 66 % 0 mm
21:19 9.5 °C 3.7 °C 1020.5 hPa SSE 7.4 km/h 6.3 km/h 67 % 0 mm
21:24 9.3 °C 3.7 °C 1020.5 hPa SE 7.4 km/h 4.7 km/h 68 % 0 mm
21:29 9.1 °C 3.5 °C 1020.5 hPa SE 9.3 km/h 6.3 km/h 68 % 0 mm
21:34 8.9 °C 3.5 °C 1020.5 hPa SSE 7.4 km/h 3.9 km/h 69 % 0 mm
21:39 8.7 °C 3.5 °C 1020.5 hPa SSE 9.3 km/h 7.2 km/h 70 % 0 mm
21:44 8.5 °C 3.3 °C 1020.9 hPa SSE 7.4 km/h 4.7 km/h 70 % 0 mm
21:49 8.3 °C 3.4 °C 1020.9 hPa SSE 3.7 km/h 5.5 km/h 71 % 0 mm
21:54 8.3 °C 3.3 °C 1020.9 hPa SE 7.4 km/h 7.1 km/h 71 % 0 mm
21:59 8.2 °C 3.4 °C 1020.9 hPa SE 9.3 km/h 5.3 km/h 72 % 0 mm
22:04 8.2 °C 3.4 °C 1020.9 hPa SSE 11.1 km/h 8.5 km/h 72 % 0 mm
22:09 8.1 °C 3.4 °C 1020.5 hPa SSE 9.3 km/h 5.3 km/h 72 % 0 mm
22:14 8.1 °C 3.3 °C 1020.5 hPa SE 7.4 km/h 3.5 km/h 72 % 0 mm
22:19 8 °C 3.4 °C 1020.9 hPa SE 9.3 km/h 4.3 km/h 73 % 0 mm
22:24 7.9 °C 3.4 °C 1020.5 hPa SSE 9.3 km/h 5.8 km/h 73 % 0 mm
22:29 7.8 °C 3.3 °C 1020.5 hPa SSE 9.3 km/h 5 km/h 73 % 0 mm
22:34 7.7 °C 3.1 °C 1020.5 hPa SSE 7.4 km/h 6.8 km/h 73 % 0 mm
22:39 7.6 °C 3 °C 1020.5 hPa SE 9.3 km/h 4.7 km/h 73 % 0 mm
22:44 7.5 °C 2.9 °C 1020.5 hPa SSE 6.4 km/h 3.4 km/h 73 % 0 mm
22:49 7.4 °C 2.9 °C 1020.5 hPa SE 9.3 km/h 6.9 km/h 73 % 0 mm
22:54 7.4 °C 2.9 °C 1020.5 hPa SSE 7.4 km/h 4 km/h 73 % 0 mm
22:59 7.3 °C 2.8 °C 1020.5 hPa SSE 11.1 km/h 2.6 km/h 73 % 0 mm
23:04 7.3 °C 2.8 °C 1020.2 hPa SE 7.4 km/h 7.2 km/h 73 % 0 mm
23:09 7.3 °C 2.8 °C 1020.2 hPa SSE 7.4 km/h 5.8 km/h 73 % 0 mm
23:14 7.3 °C 2.6 °C 1020.2 hPa SE 5.6 km/h 1.9 km/h 72 % 0 mm
23:19 7.3 °C 2.6 °C 1020.2 hPa SSE 5.6 km/h 5.5 km/h 72 % 0 mm
23:24 7.3 °C 2.6 °C 1019.9 hPa SSE 11.3 km/h 4.3 km/h 72 % 0 mm
23:29 7.3 °C 2.6 °C 1020.2 hPa SE 8 km/h 6.1 km/h 72 % 0 mm
23:34 7.3 °C 2.6 °C 1020.2 hPa SSE 9.3 km/h 3.2 km/h 72 % 0 mm
23:39 7.3 °C 2.6 °C 1020.2 hPa SE 8 km/h 6.6 km/h 72 % 0 mm
23:44 7.3 °C 2.4 °C 1020.2 hPa SE 13 km/h 4.2 km/h 71 % 0 mm
23:49 7.3 °C 2.4 °C 1020.2 hPa SE 5.6 km/h 4 km/h 71 % 0 mm
23:54 7.2 °C 2.3 °C 1020.2 hPa SSE 7.4 km/h 3.7 km/h 71 % 0 mm
23:59 7.1 °C 2.3 °C 1020.2 hPa SSE 6.4 km/h 4 km/h 72 % 0 mm
Ararat Weather
Compliments of Weather Underground - 2.25 mb
Click here to send mail.


ABOUT

Live weather data from Ararat, Victoria, Australia, 3377
Data uploaded from Cumulus every 5 minutes to Weather Underground.
This site then downloads the raw data for formatting and display.
Metric and imperial data can be displayed. Graphs and historical data available.
Includes Sun and Moon times and rain image live from BOM.

Check out Ararat Weather on Facebook, Twitter and Google +

Help support ongoing costs by checking out the ads





Follow @AraratWeather